createdAt,value
2023-04-25T00:14:51.464Z,15.00
2023-04-25T00:17:50.758Z,15.02
2023-04-25T00:20:53.964Z,15.04
2023-04-25T00:23:55.857Z,15.02
2023-04-25T00:26:55.350Z,15.03
2023-04-25T00:33:26.790Z,15.03
2023-04-25T00:36:14.310Z,15.04
2023-04-25T00:39:13.218Z,15.05
2023-04-25T00:45:46.666Z,15.01
2023-04-25T00:48:52.613Z,15.02
2023-04-25T00:52:02.964Z,15.01
2023-04-25T00:58:12.685Z,15.00
2023-04-25T01:01:03.884Z,15.00
2023-04-25T01:03:52.385Z,14.98
2023-04-25T01:06:54.983Z,14.97
2023-04-25T01:09:45.847Z,14.96
2023-04-25T01:12:44.090Z,14.97
2023-04-25T01:15:36.401Z,14.95
2023-04-25T01:18:25.313Z,14.93
2023-04-25T01:22:03.501Z,14.93
2023-04-25T01:25:07.000Z,14.91
2023-04-25T01:27:49.989Z,14.91
2023-04-25T01:30:33.942Z,14.90
2023-04-25T01:33:16.201Z,14.89
2023-04-25T01:36:23.619Z,14.89
2023-04-25T01:39:15.969Z,14.89
2023-04-25T01:42:00.160Z,14.87
2023-04-25T01:44:46.152Z,14.87
2023-04-25T01:47:33.486Z,14.87
2023-04-25T01:50:38.426Z,14.85
2023-04-25T02:20:58.760Z,14.65
2023-04-25T02:25:00.932Z,14.64
2023-04-25T02:28:02.745Z,14.64
2023-04-25T02:31:33.343Z,14.63
2023-04-25T02:34:47.228Z,14.63
2023-04-25T02:43:55.397Z,14.57
2023-04-25T03:05:01.117Z,14.45
2023-04-25T03:12:49.078Z,14.43
2023-04-25T03:16:52.786Z,14.38
2023-04-25T03:23:49.515Z,14.39
2023-04-25T03:33:31.867Z,14.37
2023-04-25T03:36:15.308Z,14.35
2023-04-25T03:39:15.609Z,14.36
2023-04-25T03:42:13.338Z,14.35
2023-04-25T03:45:13.177Z,14.36
2023-04-25T03:47:50.651Z,14.36
2023-04-25T03:54:03.078Z,14.35
2023-04-25T03:56:36.638Z,14.32
2023-04-25T03:59:15.731Z,14.31
